Time;durP1;ratioP1;P1;durP2;ratioP2;P2;SDS_P1;SDS_P2;PMS_P1;PMS_P2;Temp;Humidity;BMP_temperature;BMP_pressure;BME280_temperature;BME280_humidity;BME280_pressure;Samples;Min_cycle;Max_cycle;Signal;HPM_P1;HPM_P2
2024/01/29 00:00:16;;;;;;;8.90;5.70;;;5.40;40.20;;;;;;5140708;27;20027;-60
2024/01/29 00:02:44;;;;;;;11.07;6.10;;;5.40;44.40;;;;;;5140567;27;20031;-59
2024/01/29 00:05:09;;;;;;;6.63;5.20;;;5.40;39.40;;;;;;5140746;27;20095;-59
2024/01/29 00:07:35;;;;;;;14.27;6.07;;;5.40;38.20;;;;;;5140466;27;20110;-59
2024/01/29 00:10:01;;;;;;;8.30;5.60;;;5.30;42.80;;;;;;5140632;27;20026;-59
2024/01/29 00:12:27;;;;;;;8.18;5.70;;;5.40;38.90;;;;;;5140278;27;20123;-59
2024/01/29 00:14:53;;;;;;;9.52;5.85;;;5.40;36.60;;;;;;5122556;27;20090;-59
2024/01/29 00:17:18;;;;;;;10.85;5.55;;;5.30;37.30;;;;;;5140342;27;20035;-58
2024/01/29 00:19:44;;;;;;;8.88;5.47;;;5.30;39.00;;;;;;5122370;27;20034;-59
2024/01/29 00:22:10;;;;;;;7.13;5.53;;;5.20;46.30;;;;;;5140212;27;20031;-59
2024/01/29 00:24:36;;;;;;;11.13;5.85;;;5.10;48.80;;;;;;5140184;27;20046;-59
2024/01/29 00:27:02;;;;;;;7.35;5.22;;;5.10;51.20;;;;;;5122190;27;20046;-59
2024/01/29 00:29:27;;;;;;;10.63;5.93;;;5.10;54.50;;;;;;5122139;27;20084;-59
2024/01/29 00:31:53;;;;;;;8.60;5.40;;;5.10;59.30;;;;;;5122036;27;20027;-59
2024/01/29 00:34:20;;;;;;;7.63;5.10;;;5.10;60.00;;;;;;5139627;27;20023;-60
2024/01/29 00:36:45;;;;;;;8.32;5.85;;;5.10;61.20;;;;;;5122228;27;20024;-59
2024/01/29 00:39:13;;;;;;;8.90;5.60;;;5.00;57.60;;;;;;5139539;27;20146;-59
2024/01/29 00:41:39;;;;;;;8.65;5.53;;;5.10;62.20;;;;;;5139896;27;20061;-59
2024/01/29 00:44:04;;;;;;;7.35;5.68;;;5.00;56.90;;;;;;5139611;27;20034;-59
2024/01/29 00:46:30;;;;;;;9.25;6.28;;;5.00;64.80;;;;;;5121604;27;20031;-58
2024/01/29 00:48:56;;;;;;;7.95;5.40;;;5.00;66.30;;;;;;5139624;27;20120;-58
2024/01/29 00:51:22;;;;;;;9.32;5.30;;;5.00;65.10;;;;;;5139408;27;20283;-59
2024/01/29 00:53:47;;;;;;;10.57;5.40;;;5.00;65.70;;;;;;5103391;27;20050;-59
2024/01/29 00:56:14;;;;;;;10.48;5.93;;;4.90;73.70;;;;;;5139461;27;20463;-59
2024/01/29 00:58:44;;;;;;;7.63;5.22;;;4.90;67.40;;;;;;5139312;27;20031;-58
2024/01/29 01:01:11;;;;;;;8.52;5.32;;;4.90;68.20;;;;;;5139894;27;20095;-59
2024/01/29 01:03:37;;;;;;;9.68;5.03;;;4.90;73.40;;;;;;5139294;27;20035;-60
2024/01/29 01:06:03;;;;;;;9.27;5.68;;;4.90;73.00;;;;;;5139184;27;20390;-59
2024/01/29 01:08:28;;;;;;;8.15;5.30;;;4.80;73.10;;;;;;5104503;27;20050;-60
2024/01/29 01:10:54;;;;;;;8.95;5.57;;;4.80;75.00;;;;;;5121238;27;20055;-60
2024/01/29 01:13:20;;;;;;;8.82;5.65;;;4.70;77.10;;;;;;5121249;27;20051;-60
2024/01/29 01:15:46;;;;;;;9.32;5.72;;;4.80;79.40;;;;;;5121264;27;20031;-61
2024/01/29 01:18:12;;;;;;;9.18;5.97;;;4.80;79.80;;;;;;5139096;27;20043;-62
2024/01/29 01:20:37;;;;;;;10.93;5.93;;;4.70;80.00;;;;;;5139307;27;20084;-61
2024/01/29 01:23:03;;;;;;;8.32;5.68;;;4.80;83.10;;;;;;5121286;27;20417;-60
2024/01/29 01:25:29;;;;;;;8.27;5.50;;;4.70;82.80;;;;;;5104042;27;20031;-59
2024/01/29 01:27:55;;;;;;;11.52;5.68;;;4.70;86.10;;;;;;5121000;27;20053;-59
2024/01/29 01:30:22;;;;;;;10.13;5.45;;;4.70;88.00;;;;;;5120942;27;20031;-60
2024/01/29 01:32:48;;;;;;;9.48;6.40;;;4.60;90.10;;;;;;5138685;27;20077;-61
2024/01/29 01:35:14;;;;;;;9.20;5.57;;;4.60;91.30;;;;;;5138674;27;20110;-60
2024/01/29 01:37:40;;;;;;;9.23;6.07;;;4.60;95.30;;;;;;5138412;27;20486;-60
2024/01/29 01:40:07;;;;;;;7.95;5.38;;;4.60;94.50;;;;;;5138772;27;20334;-59
2024/01/29 01:42:33;;;;;;;9.90;5.53;;;4.60;92.60;;;;;;5138537;27;20035;-59
2024/01/29 01:44:59;;;;;;;8.13;5.38;;;4.60;94.40;;;;;;5138448;27;20296;-58
2024/01/29 01:47:25;;;;;;;7.68;5.65;;;4.60;93.80;;;;;;5138436;27;20126;-59
2024/01/29 01:49:51;;;;;;;8.75;5.30;;;4.60;94.80;;;;;;5138387;27;20031;-61
2024/01/29 01:52:19;;;;;;;8.80;5.30;;;4.60;94.00;;;;;;5138490;27;20438;-60
2024/01/29 01:54:46;;;;;;;7.60;5.43;;;4.50;94.30;;;;;;5120491;27;20379;-61
2024/01/29 01:57:12;;;;;;;9.75;5.80;;;4.50;96.60;;;;;;5138503;27;20034;-60
2024/01/29 01:59:41;;;;;;;11.15;5.85;;;4.40;98.70;;;;;;5120229;27;20037;-59
2024/01/29 02:02:08;;;;;;;8.15;5.63;;;4.40;99.00;;;;;;5138177;27;20019;-60
2024/01/29 02:04:33;;;;;;;8.70;5.60;;;4.50;99.20;;;;;;5137809;27;20031;-60
2024/01/29 02:07:00;;;;;;;8.63;4.97;;;4.40;96.90;;;;;;5120788;27;20386;-59
2024/01/29 02:09:26;;;;;;;9.20;5.60;;;4.50;95.90;;;;;;5138054;27;20023;-59
2024/01/29 02:11:52;;;;;;;8.43;5.63;;;4.40;97.60;;;;;;5120389;27;20429;-59
2024/01/29 02:14:18;;;;;;;10.25;6.00;;;4.40;95.70;;;;;;5137945;27;20038;-59
2024/01/29 02:16:44;;;;;;;9.23;5.13;;;4.50;95.00;;;;;;5120096;27;20035;-59
2024/01/29 02:19:15;;;;;;;10.02;5.47;;;4.40;94.70;;;;;;5137949;27;20058;-59
2024/01/29 02:21:42;;;;;;;8.93;6.00;;;4.30;95.90;;;;;;5137968;27;20026;-60
2024/01/29 02:24:08;;;;;;;9.38;6.13;;;4.30;98.10;;;;;;5137866;27;20028;-60
2024/01/29 02:26:33;;;;;;;10.88;5.30;;;4.30;99.90;;;;;;5138071;27;20390;-59
2024/01/29 02:28:59;;;;;;;11.43;5.80;;;4.20;99.90;;;;;;5119972;28;20302;-59
2024/01/29 02:31:25;;;;;;;7.72;5.30;;;4.20;99.90;;;;;;5137807;27;20058;-59
2024/01/29 02:33:51;;;;;;;9.02;5.28;;;4.20;99.90;;;;;;5120076;27;20287;-59
2024/01/29 02:36:17;;;;;;;9.57;5.68;;;4.20;99.90;;;;;;5119938;28;20394;-60
2024/01/29 02:38:42;;;;;;;9.50;6.05;;;4.20;99.90;;;;;;5137510;28;20066;-59
2024/01/29 02:41:09;;;;;;;8.60;5.35;;;4.20;99.90;;;;;;5137681;28;20042;-59
2024/01/29 02:43:35;;;;;;;9.23;5.30;;;4.20;99.90;;;;;;5137591;28;20034;-59
2024/01/29 02:46:01;;;;;;;8.75;5.20;;;4.20;99.90;;;;;;5137633;28;20027;-60
2024/01/29 02:48:27;;;;;;;10.05;5.47;;;4.20;99.90;;;;;;5137562;28;20118;-60
2024/01/29 02:50:52;;;;;;;7.82;5.50;;;4.20;99.90;;;;;;5137652;28;20035;-60
2024/01/29 02:53:18;;;;;;;7.00;5.15;;;4.20;99.90;;;;;;5137595;28;20347;-60
2024/01/29 02:55:44;;;;;;;8.05;5.50;;;4.10;99.90;;;;;;5119834;28;20090;-60
2024/01/29 02:58:10;;;;;;;10.73;5.43;;;4.10;99.90;;;;;;5137515;28;20041;-59
2024/01/29 03:00:36;;;;;;;9.57;5.65;;;4.10;99.90;;;;;;5137666;28;20027;-59
2024/01/29 03:03:02;;;;;;;7.70;4.88;;;4.00;99.90;;;;;;5137600;28;20402;-59
2024/01/29 03:05:28;;;;;;;9.00;5.60;;;4.10;99.90;;;;;;5137634;28;20351;-60
2024/01/29 03:07:54;;;;;;;8.13;5.05;;;4.10;99.90;;;;;;5137395;28;20057;-61
2024/01/29 03:10:20;;;;;;;8.70;5.80;;;4.10;99.90;;;;;;5137456;28;20035;-60
2024/01/29 03:12:46;;;;;;;9.10;5.38;;;4.10;99.90;;;;;;5137358;28;20114;-60
2024/01/29 03:15:12;;;;;;;8.60;5.80;;;4.00;99.90;;;;;;5137529;27;20114;-59
2024/01/29 03:17:38;;;;;;;7.32;5.55;;;4.10;99.90;;;;;;5141317;27;20027;-60
2024/01/29 03:20:04;;;;;;;7.80;5.35;;;4.10;99.90;;;;;;5141241;27;20038;-59
2024/01/29 03:22:30;;;;;;;6.78;5.05;;;4.00;99.90;;;;;;5141253;27;20023;-60
2024/01/29 03:24:56;;;;;;;7.05;5.18;;;3.90;99.90;;;;;;5141226;27;20118;-59
2024/01/29 03:27:21;;;;;;;9.77;5.53;;;3.90;99.90;;;;;;5123499;27;20023;-60
2024/01/29 03:29:47;;;;;;;7.70;4.95;;;3.90;99.90;;;;;;5141084;27;20042;-60
2024/01/29 03:32:13;;;;;;;8.77;5.45;;;3.80;99.90;;;;;;5141116;27;20023;-60
2024/01/29 03:34:42;;;;;;;10.13;5.32;;;3.90;99.90;;;;;;5140942;27;20069;-59
2024/01/29 03:37:09;;;;;;;8.93;5.15;;;3.90;99.90;;;;;;5141013;27;20030;-59
2024/01/29 03:39:34;;;;;;;5.93;4.88;;;3.90;99.90;;;;;;5140776;27;20284;-60
2024/01/29 03:42:00;;;;;;;7.55;5.13;;;3.90;99.90;;;;;;5123495;27;20027;-59
2024/01/29 03:44:26;;;;;;;7.20;5.47;;;3.90;99.90;;;;;;5140861;27;20056;-59
2024/01/29 03:46:52;;;;;;;8.75;5.80;;;3.90;99.90;;;;;;5140834;27;20064;-60
2024/01/29 03:49:18;;;;;;;7.32;4.95;;;3.90;99.90;;;;;;5140894;27;20023;-59
2024/01/29 03:51:43;;;;;;;7.35;5.15;;;3.90;99.90;;;;;;5140780;27;20023;-60
2024/01/29 03:54:09;;;;;;;7.43;4.72;;;3.90;99.90;;;;;;5140473;27;20027;-59
2024/01/29 03:56:35;;;;;;;6.40;4.72;;;3.90;99.90;;;;;;5140622;27;20036;-59
2024/01/29 03:59:02;;;;;;;7.95;5.15;;;3.90;99.90;;;;;;5140557;27;20031;-59
2024/01/29 04:01:29;;;;;;;8.00;4.95;;;3.90;99.90;;;;;;5122569;27;20019;-59
2024/01/29 04:03:55;;;;;;;9.68;5.03;;;3.90;99.90;;;;;;5140439;27;20133;-59
2024/01/29 04:06:22;;;;;;;7.70;5.15;;;3.90;99.90;;;;;;5122762;27;20031;-60
2024/01/29 04:08:47;;;;;;;6.75;4.75;;;3.90;99.90;;;;;;5140400;27;20051;-60
2024/01/29 04:11:14;;;;;;;7.00;4.50;;;3.90;99.90;;;;;;5140312;27;20065;-59
2024/01/29 04:13:40;;;;;;;6.90;4.82;;;4.00;99.90;;;;;;5140240;27;20063;-60
2024/01/29 04:16:10;;;;;;;8.38;5.10;;;4.00;99.90;;;;;;5139989;27;20290;-59
2024/01/29 04:18:38;;;;;;;6.45;4.60;;;3.90;99.90;;;;;;5140218;27;20386;-60
2024/01/29 04:21:05;;;;;;;5.47;4.50;;;4.00;99.90;;;;;;5140162;27;20042;-58
2024/01/29 04:23:33;;;;;;;6.78;4.55;;;4.00;99.90;;;;;;5122029;27;20090;-59
2024/01/29 04:25:58;;;;;;;6.13;4.20;;;4.10;99.90;;;;;;5140077;27;20035;-60
2024/01/29 04:28:24;;;;;;;10.60;4.68;;;4.10;99.90;;;;;;5139774;27;20336;-59
2024/01/29 04:30:50;;;;;;;6.18;4.40;;;4.10;99.90;;;;;;5122209;27;20031;-61
2024/01/29 04:33:16;;;;;;;5.75;4.43;;;4.20;99.90;;;;;;5122205;27;20189;-61
2024/01/29 04:35:41;;;;;;;7.28;4.80;;;4.20;99.90;;;;;;5121842;27;20123;-60
2024/01/29 04:38:07;;;;;;;7.18;4.63;;;4.20;99.90;;;;;;5139600;27;20054;-60
2024/01/29 04:40:38;;;;;;;7.53;4.38;;;4.20;99.90;;;;;;5121933;27;20080;-60
2024/01/29 04:43:05;;;;;;;6.75;4.13;;;4.20;99.90;;;;;;5122850;27;20124;-60
2024/01/29 04:45:30;;;;;;;7.05;4.68;;;4.20;99.90;;;;;;5139629;27;20385;-60
2024/01/29 04:47:56;;;;;;;7.15;4.53;;;4.20;99.90;;;;;;5139608;27;20081;-60
2024/01/29 04:50:22;;;;;;;7.20;4.43;;;4.20;99.90;;;;;;5139516;27;20325;-60
2024/01/29 04:52:48;;;;;;;5.63;4.25;;;4.30;99.90;;;;;;5139372;27;20102;-60
2024/01/29 04:55:14;;;;;;;5.85;4.13;;;4.30;99.90;;;;;;5139529;27;20047;-60
2024/01/29 04:57:41;;;;;;;8.15;4.07;;;4.30;99.90;;;;;;5139858;27;20308;-59
2024/01/29 05:00:08;;;;;;;6.97;4.43;;;4.20;99.90;;;;;;5139360;27;20041;-60
2024/01/29 05:02:35;;;;;;;7.90;4.43;;;4.30;99.90;;;;;;5121494;27;20270;-60
2024/01/29 05:05:01;;;;;;;6.95;4.70;;;4.40;99.90;;;;;;5139237;27;20027;-60
2024/01/29 05:07:27;;;;;;;7.30;4.30;;;4.40;99.90;;;;;;5139078;27;20031;-60
2024/01/29 05:09:54;;;;;;;6.75;4.15;;;4.40;99.90;;;;;;5139401;27;20079;-59
2024/01/29 05:12:20;;;;;;;7.35;4.43;;;4.40;99.90;;;;;;5139042;27;20034;-60
2024/01/29 05:14:46;;;;;;;6.18;4.47;;;4.40;99.90;;;;;;5138981;27;20391;-60
2024/01/29 05:17:11;;;;;;;6.82;4.50;;;4.40;99.90;;;;;;5138937;27;20092;-61
2024/01/29 05:19:40;;;;;;;8.40;4.68;;;4.50;99.90;;;;;;5138906;27;20023;-61
2024/01/29 05:22:06;;;;;;;8.10;4.43;;;4.50;99.90;;;;;;5138893;27;20019;-60
2024/01/29 05:24:32;;;;;;;7.35;4.63;;;4.50;99.90;;;;;;5138861;27;20039;-60
2024/01/29 05:26:58;;;;;;;7.82;4.47;;;4.60;99.90;;;;;;5138865;27;20034;-60
2024/01/29 05:29:23;;;;;;;7.18;4.32;;;4.60;99.90;;;;;;5138752;27;20035;-60
2024/01/29 05:31:50;;;;;;;5.43;4.22;;;4.60;99.90;;;;;;5138737;27;20094;-60
2024/01/29 05:34:15;;;;;;;8.55;5.15;;;4.60;99.90;;;;;;5120860;27;20456;-60
2024/01/29 05:36:41;;;;;;;8.43;4.47;;;4.50;99.90;;;;;;5138610;27;20372;-60
2024/01/29 05:39:07;;;;;;;7.60;4.38;;;4.50;99.90;;;;;;5137739;27;20050;-60
2024/01/29 05:41:33;;;;;;;6.97;4.40;;;4.50;99.90;;;;;;5138455;27;20188;-60
2024/01/29 05:43:59;;;;;;;8.45;4.32;;;4.40;99.90;;;;;;5120467;27;20050;-60
2024/01/29 05:46:25;;;;;;;6.05;4.00;;;4.50;99.90;;;;;;5138384;27;20118;-60
2024/01/29 05:48:50;;;;;;;7.72;4.22;;;4.50;99.90;;;;;;5138300;27;20172;-60
2024/01/29 05:51:16;;;;;;;8.05;4.70;;;4.40;99.90;;;;;;5138234;27;20038;-60
2024/01/29 05:53:42;;;;;;;5.75;4.20;;;4.30;99.90;;;;;;5138103;27;20357;-60
2024/01/29 05:56:08;;;;;;;8.57;4.80;;;4.30;99.90;;;;;;5103292;27;20042;-60
2024/01/29 05:58:36;;;;;;;6.22;4.55;;;4.40;99.90;;;;;;5137969;27;20050;-60
2024/01/29 06:01:02;;;;;;;8.35;4.75;;;4.30;99.90;;;;;;5138128;27;20023;-60
2024/01/29 06:03:28;;;;;;;8.25;5.40;;;4.30;99.90;;;;;;5138049;27;20039;-61
2024/01/29 06:05:55;;;;;;;10.90;6.53;;;4.30;99.90;;;;;;5137923;27;20028;-59
2024/01/29 06:08:21;;;;;;;9.48;6.00;;;4.30;99.90;;;;;;5103155;27;20063;-60
2024/01/29 06:10:47;;;;;;;8.38;5.03;;;4.30;99.90;;;;;;5120149;27;20058;-60
2024/01/29 06:13:12;;;;;;;8.65;5.15;;;4.30;99.90;;;;;;5103282;27;20069;-60
2024/01/29 06:15:38;;;;;;;8.65;4.95;;;4.30;99.90;;;;;;5137662;27;20113;-60
2024/01/29 06:18:07;;;;;;;8.40;5.28;;;4.30;99.90;;;;;;5119786;27;20027;-60
2024/01/29 06:20:33;;;;;;;9.70;5.03;;;4.40;99.90;;;;;;5137666;27;20054;-61
2024/01/29 06:22:59;;;;;;;10.52;5.95;;;4.40;99.90;;;;;;5103125;27;20429;-60
2024/01/29 06:25:24;;;;;;;10.35;5.45;;;4.40;99.90;;;;;;5120222;27;20043;-60
2024/01/29 06:27:53;;;;;;;9.90;5.22;;;4.50;99.90;;;;;;5120073;27;20054;-61
2024/01/29 06:30:19;;;;;;;10.68;5.47;;;4.50;99.90;;;;;;5102535;28;20139;-61
2024/01/29 06:32:46;;;;;;;10.63;5.63;;;4.50;99.90;;;;;;5102879;28;20122;-61
2024/01/29 06:35:15;;;;;;;9.23;5.75;;;4.60;99.90;;;;;;5120241;27;20050;-60
2024/01/29 06:37:41;;;;;;;7.95;5.45;;;4.70;99.90;;;;;;5119884;28;20264;-60
2024/01/29 06:40:08;;;;;;;9.10;5.53;;;4.80;99.90;;;;;;5137690;28;20023;-60
2024/01/29 06:42:35;;;;;;;10.18;5.50;;;4.90;99.90;;;;;;5137865;28;20340;-60
2024/01/29 06:45:01;;;;;;;8.10;5.43;;;5.00;99.90;;;;;;5119934;28;20031;-60
2024/01/29 06:47:27;;;;;;;11.38;5.97;;;5.00;99.90;;;;;;5119291;28;20075;-60
2024/01/29 06:49:58;;;;;;;8.25;5.45;;;5.00;99.90;;;;;;5137627;27;20041;-60
2024/01/29 06:52:25;;;;;;;10.00;5.65;;;5.20;99.90;;;;;;5141433;27;20061;-60
2024/01/29 06:54:51;;;;;;;10.38;5.75;;;5.10;99.90;;;;;;5141605;27;20063;-60
2024/01/29 06:57:17;;;;;;;12.32;5.95;;;5.20;99.90;;;;;;5141694;27;20338;-60
2024/01/29 06:59:43;;;;;;;8.73;4.47;;;5.40;99.90;;;;;;5141626;27;20058;-57
2024/01/29 07:02:09;;;;;;;7.72;5.32;;;5.80;99.90;;;;;;5141598;27;20382;-60
2024/01/29 07:04:34;;;;;;;11.40;5.80;;;6.80;82.80;;;;;;5141597;27;20060;-59
2024/01/29 07:07:01;;;;;;;9.43;5.30;;;6.40;75.80;;;;;;5141436;27;20034;-59
2024/01/29 07:09:26;;;;;;;8.80;5.38;;;6.20;94.00;;;;;;5123466;27;20099;-59
2024/01/29 07:11:52;;;;;;;9.80;5.00;;;6.00;93.30;;;;;;5141620;27;20039;-59
2024/01/29 07:14:18;;;;;;;8.73;5.25;;;5.90;99.90;;;;;;5123514;27;20045;-60
2024/01/29 07:16:44;;;;;;;8.93;4.97;;;5.90;99.90;;;;;;5141329;27;20031;-60
2024/01/29 07:19:11;;;;;;;9.05;5.43;;;5.80;99.90;;;;;;5123389;27;20404;-60
2024/01/29 07:21:37;;;;;;;13.27;5.93;;;5.80;99.90;;;;;;5141301;27;20042;-60
2024/01/29 07:24:04;;;;;;;7.60;4.93;;;5.90;99.90;;;;;;5141139;27;20035;-57
2024/01/29 07:26:30;;;;;;;9.18;5.30;;;6.40;99.90;;;;;;5141153;27;20035;-60
2024/01/29 07:28:56;;;;;;;12.55;5.18;;;6.30;92.50;;;;;;5141408;27;20413;-60
2024/01/29 07:31:21;;;;;;;8.55;4.80;;;6.20;96.50;;;;;;5140969;27;20388;-60
2024/01/29 07:33:48;;;;;;;7.40;4.65;;;6.10;97.90;;;;;;5140974;27;20394;-60
2024/01/29 07:36:13;;;;;;;9.20;4.78;;;6.00;99.90;;;;;;5123123;27;20031;-60
2024/01/29 07:38:40;;;;;;;7.20;4.82;;;5.90;99.90;;;;;;5140873;27;20123;-59
2024/01/29 07:41:06;;;;;;;8.70;5.40;;;5.90;99.90;;;;;;5141271;27;20034;-58
2024/01/29 07:43:32;;;;;;;7.47;4.82;;;5.90;99.90;;;;;;5123154;27;20038;-59
2024/01/29 07:45:57;;;;;;;7.95;4.60;;;5.90;99.90;;;;;;5123288;27;20061;-59
2024/01/29 07:48:23;;;;;;;6.47;5.10;;;5.90;99.90;;;;;;5122994;27;20073;-59
2024/01/29 07:50:49;;;;;;;8.70;5.28;;;6.00;99.90;;;;;;5122832;27;20386;-59
2024/01/29 07:53:15;;;;;;;7.57;4.82;;;6.00;99.90;;;;;;5122770;27;20031;-59
2024/01/29 07:55:40;;;;;;;7.68;4.80;;;6.00;99.90;;;;;;5140521;27;20023;-60
2024/01/29 07:58:08;;;;;;;8.32;4.78;;;6.00;99.90;;;;;;5122675;27;20379;-58
2024/01/29 08:00:34;;;;;;;6.43;4.65;;;6.00;99.90;;;;;;5122576;27;20442;-58
2024/01/29 08:03:00;;;;;;;8.32;4.90;;;6.00;99.90;;;;;;5139764;27;20122;-59
2024/01/29 08:05:25;;;;;;;6.85;4.65;;;6.00;99.90;;;;;;5105666;27;20058;-58
2024/01/29 08:07:51;;;;;;;8.85;5.20;;;6.00;99.90;;;;;;5140570;27;20071;-59
2024/01/29 08:10:17;;;;;;;11.73;5.78;;;6.00;99.90;;;;;;5105541;27;20039;-59
2024/01/29 08:12:43;;;;;;;6.95;4.88;;;6.10;99.90;;;;;;5122496;27;20031;-59
2024/01/29 08:15:09;;;;;;;8.32;5.60;;;6.10;99.90;;;;;;5140381;27;20106;-59
2024/01/29 08:17:36;;;;;;;8.88;5.90;;;6.20;99.90;;;;;;5140240;27;20019;-59
2024/01/29 08:20:03;;;;;;;11.48;5.50;;;6.30;99.90;;;;;;5122522;27;20115;-58
2024/01/29 08:22:29;;;;;;;8.90;5.50;;;6.40;99.90;;;;;;5122690;27;20298;-58
2024/01/29 08:24:55;;;;;;;8.30;5.65;;;6.40;99.60;;;;;;5122272;27;20031;-58
2024/01/29 08:27:21;;;;;;;8.15;5.53;;;6.50;99.80;;;;;;5105160;27;20126;-59
2024/01/29 08:29:47;;;;;;;7.03;4.97;;;6.60;95.80;;;;;;5140103;27;20470;-59
2024/01/29 08:32:12;;;;;;;8.55;5.68;;;6.70;93.80;;;;;;5140112;27;20477;-58
2024/01/29 08:34:38;;;;;;;8.57;5.82;;;6.70;93.70;;;;;;5122169;27;20023;-58
2024/01/29 08:37:05;;;;;;;9.88;5.70;;;6.70;94.10;;;;;;5122356;27;20047;-59
2024/01/29 08:39:30;;;;;;;9.63;5.35;;;6.80;92.70;;;;;;5139857;27;20315;-59
2024/01/29 08:41:56;;;;;;;9.07;5.55;;;6.90;90.70;;;;;;5139897;27;20023;-58
2024/01/29 08:44:23;;;;;;;11.85;6.30;;;6.90;90.40;;;;;;5139845;27;20039;-59
2024/01/29 08:46:49;;;;;;;11.27;6.18;;;7.00;89.50;;;;;;5139783;27;20023;-58
2024/01/29 08:49:16;;;;;;;10.82;6.13;;;7.00;88.60;;;;;;5139701;27;20043;-59
2024/01/29 08:51:42;;;;;;;12.05;6.18;;;7.00;89.00;;;;;;5139730;27;20031;-59
2024/01/29 08:54:08;;;;;;;11.15;6.20;;;7.10;85.50;;;;;;5139590;27;20417;-59
2024/01/29 08:56:34;;;;;;;10.45;6.47;;;7.20;83.30;;;;;;5121956;27;20027;-59
2024/01/29 08:59:00;;;;;;;10.95;6.68;;;7.20;82.90;;;;;;5121805;27;20038;-59
2024/01/29 09:01:26;;;;;;;10.95;6.60;;;7.30;81.50;;;;;;5139569;27;20042;-58
2024/01/29 09:03:52;;;;;;;13.82;6.38;;;7.40;76.60;;;;;;5139502;27;20027;-58
2024/01/29 09:06:18;;;;;;;11.43;5.90;;;7.40;73.30;;;;;;5139394;27;20042;-59
2024/01/29 09:08:44;;;;;;;12.43;6.60;;;7.40;75.60;;;;;;5139317;27;20106;-59
2024/01/29 09:11:10;;;;;;;11.70;6.55;;;7.50;75.60;;;;;;5139336;27;20161;-59
2024/01/29 09:13:37;;;;;;;10.98;6.18;;;7.50;76.90;;;;;;5120432;27;20358;-59
2024/01/29 09:16:03;;;;;;;10.98;5.72;;;7.50;78.50;;;;;;5121383;27;20458;-58
2024/01/29 09:18:28;;;;;;;9.80;6.25;;;7.60;77.40;;;;;;5139043;27;20297;-58
2024/01/29 09:20:55;;;;;;;10.20;6.25;;;7.60;78.10;;;;;;5139353;27;20027;-59
2024/01/29 09:23:21;;;;;;;11.25;6.30;;;7.70;75.60;;;;;;5139104;27;20092;-59
2024/01/29 09:25:47;;;;;;;9.75;6.45;;;7.70;75.00;;;;;;5138995;27;20308;-59
2024/01/29 09:28:12;;;;;;;9.18;5.85;;;7.70;71.60;;;;;;5104338;27;20336;-58
2024/01/29 09:30:38;;;;;;;10.73;5.75;;;7.80;75.10;;;;;;5138819;27;20118;-59
2024/01/29 09:33:04;;;;;;;9.98;6.07;;;7.90;74.70;;;;;;5138705;27;20031;-59
2024/01/29 09:35:30;;;;;;;9.50;6.15;;;8.00;71.10;;;;;;5138609;27;20361;-59
2024/01/29 09:37:56;;;;;;;9.98;5.80;;;8.10;65.90;;;;;;5138694;27;20126;-59
2024/01/29 09:40:22;;;;;;;9.52;5.43;;;8.10;57.60;;;;;;5120907;27;20443;-59
2024/01/29 09:42:52;;;;;;;11.20;5.75;;;8.20;59.70;;;;;;5120551;27;20034;-58
2024/01/29 09:45:28;;;;;;;9.38;5.82;;;8.20;64.50;;;;;;5138313;27;20030;-58
2024/01/29 09:47:55;;;;;;;8.73;5.88;;;8.40;58.00;;;;;;5120659;27;20116;-59
2024/01/29 09:50:24;;;;;;;9.73;5.93;;;8.50;55.80;;;;;;5120655;27;20023;-59
2024/01/29 09:52:53;;;;;;;11.20;6.10;;;8.50;55.10;;;;;;5138366;27;20120;-59
2024/01/29 09:55:19;;;;;;;13.02;6.57;;;8.50;58.30;;;;;;5138497;27;20038;-59
2024/01/29 09:57:45;;;;;;;12.30;5.78;;;8.50;63.30;;;;;;5138435;27;20038;-60
2024/01/29 10:00:12;;;;;;;10.80;5.93;;;8.50;63.50;;;;;;5120602;27;20031;-59
2024/01/29 10:02:41;;;;;;;12.07;6.22;;;8.60;63.70;;;;;;5138282;27;20027;-58
2024/01/29 10:05:11;;;;;;;8.68;5.53;;;8.70;62.00;;;;;;5120406;27;20382;-58
2024/01/29 10:07:38;;;;;;;11.43;5.80;;;8.70;59.30;;;;;;5120517;27;20023;-59
2024/01/29 10:10:10;;;;;;;8.85;5.68;;;8.80;59.00;;;;;;5138219;27;20418;-59
2024/01/29 10:12:36;;;;;;;;;;;8.90;56.80;;;;;;5120883;27;20298;-59
2024/01/29 10:15:03;;;;;;;7.03;4.70;;;8.90;53.70;;;;;;5138057;27;19926;-59
2024/01/29 10:17:29;;;;;;;10.93;5.90;;;9.10;52.40;;;;;;5138086;27;20027;-59
2024/01/29 10:19:54;;;;;;;7.78;5.20;;;9.10;45.80;;;;;;5138160;27;20038;-59
2024/01/29 10:22:26;;;;;;;13.27;5.35;;;9.20;44.70;;;;;;5138056;27;20389;-59
2024/01/29 10:25:04;;;;;;;7.63;5.63;;;9.30;46.60;;;;;;5120079;27;20035;-58
2024/01/29 10:27:31;;;;;;;9.80;5.85;;;9.30;37.50;;;;;;5137966;27;20041;-60
2024/01/29 10:29:57;;;;;;;10.50;5.75;;;9.60;42.30;;;;;;5137999;27;20046;-59
2024/01/29 10:32:26;;;;;;;10.43;5.80;;;9.80;21.70;;;;;;5120048;28;20150;-59
2024/01/29 10:34:51;;;;;;;8.95;5.30;;;10.00;1.10;;;;;;5137866;27;20123;-59
2024/01/29 10:37:20;;;;;;;8.60;5.80;;;10.00;2.40;;;;;;5138003;27;20405;-58
2024/01/29 10:39:47;;;;;;;7.10;5.68;;;10.10;1.00;;;;;;5137707;28;20071;-58
2024/01/29 10:42:14;;;;;;;8.27;5.68;;;10.10;1.00;;;;;;5137827;28;20091;-58
2024/01/29 10:44:41;;;;;;;13.25;6.03;;;10.10;1.20;;;;;;5137863;28;20062;-58
2024/01/29 10:47:23;;;;;;;9.40;5.28;;;10.30;1.00;;;;;;5137776;28;20055;-59
2024/01/29 10:49:52;;;;;;;9.93;5.63;;;10.70;1.00;;;;;;5120105;28;20051;-59
2024/01/29 10:52:20;;;;;;;8.23;5.53;;;11.40;1.00;;;;;;5119756;28;20027;-59
2024/01/29 10:54:46;;;;;;;7.47;5.18;;;12.20;1.00;;;;;;5137576;28;20106;-60
2024/01/29 10:57:14;;;;;;;10.80;5.50;;;12.70;1.00;;;;;;5137642;28;20059;-60
2024/01/29 10:59:42;;;;;;;10.55;5.25;;;13.50;1.00;;;;;;5119840;28;20031;-57
2024/01/29 11:02:17;;;;;;;7.30;5.30;;;13.90;99.90;;;;;;5137524;28;20051;-59
2024/01/29 11:04:43;;;;;;;7.32;5.28;;;13.70;99.90;;;;;;5137485;28;20035;-59
2024/01/29 11:07:22;;;;;;;8.60;5.32;;;14.00;64.20;;;;;;5137655;28;20168;-60
2024/01/29 11:09:59;;;;;;;10.80;5.20;;;14.70;1.00;;;;;;5137638;28;20023;-60
2024/01/29 11:12:26;;;;;;;9.25;5.50;;;15.70;1.00;;;;;;5120552;28;20035;-59
2024/01/29 11:15:00;;;;;;;9.55;6.00;;;14.30;1.00;;;;;;5119970;28;20028;-59
2024/01/29 11:17:26;;;;;;;7.30;5.88;;;13.20;1.00;;;;;;5137461;28;20088;-59
2024/01/29 11:19:52;;;;;;;8.63;5.90;;;12.90;1.00;;;;;;5119628;28;20031;-59
2024/01/29 11:22:18;;;;;;;8.98;6.43;;;12.60;1.00;;;;;;5119388;28;20102;-60
2024/01/29 11:24:44;;;;;;;8.48;5.70;;;12.20;1.00;;;;;;5137332;28;20034;-60
2024/01/29 11:27:12;;;;;;;8.18;6.10;;;12.00;1.00;;;;;;5137317;28;20043;-59
2024/01/29 11:29:38;;;;;;;8.30;6.18;;;12.40;1.00;;;;;;5137465;28;20039;-59
2024/01/29 11:32:05;;;;;;;7.65;6.15;;;12.70;1.00;;;;;;5137490;28;20263;-60
2024/01/29 11:34:32;;;;;;;10.40;6.65;;;12.70;1.00;;;;;;5137131;28;20033;-59
2024/01/29 11:36:58;;;;;;;8.68;5.88;;;12.90;1.00;;;;;;5138363;27;20035;-57
2024/01/29 11:39:27;;;;;;;7.60;6.45;;;13.10;1.00;;;;;;5140912;27;20454;-57
2024/01/29 11:41:53;;;;;;;9.45;6.20;;;13.10;1.00;;;;;;5140951;27;20034;-57
2024/01/29 11:44:21;;;;;;;9.95;6.43;;;12.70;1.00;;;;;;5122996;27;20035;-58
2024/01/29 11:46:49;;;;;;;8.50;6.80;;;12.40;1.00;;;;;;5140850;27;20020;-59
2024/01/29 11:49:27;;;;;;;12.45;7.22;;;12.40;1.00;;;;;;5122790;27;20031;-58
2024/01/29 11:51:56;;;;;;;9.98;7.22;;;12.10;1.00;;;;;;5140878;27;20054;-58
2024/01/29 11:54:24;;;;;;;10.27;7.18;;;12.20;1.00;;;;;;5122703;27;20015;-59
2024/01/29 11:56:49;;;;;;;9.75;7.18;;;12.20;1.00;;;;;;5140555;27;20027;-59
2024/01/29 11:59:15;;;;;;;10.93;7.40;;;12.20;1.00;;;;;;5105788;27;20034;-59
2024/01/29 12:01:43;;;;;;;11.90;7.30;;;12.10;1.00;;;;;;5140352;27;20034;-59
2024/01/29 12:04:11;;;;;;;12.68;7.03;;;12.30;1.00;;;;;;5140474;27;20126;-59
2024/01/29 12:06:37;;;;;;;9.35;6.95;;;12.20;1.00;;;;;;5140385;27;20128;-59
2024/01/29 12:09:09;;;;;;;14.10;6.93;;;12.40;1.00;;;;;;5140743;27;20290;-59
2024/01/29 12:11:35;;;;;;;11.38;7.47;;;12.50;1.00;;;;;;5140753;27;20043;-60
2024/01/29 12:14:01;;;;;;;9.45;6.82;;;12.60;1.00;;;;;;5140332;27;20034;-59
2024/01/29 12:16:28;;;;;;;11.52;6.80;;;12.60;1.00;;;;;;5140225;27;20023;-59
2024/01/29 12:18:55;;;;;;;11.32;6.80;;;12.50;1.00;;;;;;5140315;27;20054;-59
2024/01/29 12:21:21;;;;;;;11.98;6.97;;;12.40;1.00;;;;;;5140300;27;20074;-59
2024/01/29 12:23:47;;;;;;;12.18;6.97;;;12.40;1.00;;;;;;5140120;27;20027;-58
2024/01/29 12:26:13;;;;;;;10.93;7.05;;;12.40;1.00;;;;;;5140199;27;20114;-59
2024/01/29 12:28:39;;;;;;;10.20;7.13;;;12.40;1.00;;;;;;5140179;27;20081;-59
2024/01/29 12:31:06;;;;;;;8.55;6.28;;;12.50;1.00;;;;;;5140338;27;20039;-59
2024/01/29 12:33:33;;;;;;;10.10;7.18;;;12.50;1.00;;;;;;5139960;27;20027;-59
2024/01/29 12:36:16;;;;;;;9.63;6.75;;;12.60;1.00;;;;;;5140080;27;20038;-59
2024/01/29 12:38:43;;;;;;;11.05;7.57;;;12.60;1.00;;;;;;5139787;27;20062;-59
2024/01/29 12:41:09;;;;;;;12.90;7.22;;;12.70;1.00;;;;;;5140002;27;20076;-59
2024/01/29 12:43:35;;;;;;;9.65;7.05;;;12.80;1.00;;;;;;5104897;27;20035;-59
2024/01/29 12:46:13;;;;;;;11.73;7.22;;;12.90;1.00;;;;;;5139961;27;20023;-59
2024/01/29 12:48:40;;;;;;;10.65;6.82;;;13.00;1.00;;;;;;5121863;27;20107;-59
2024/01/29 12:51:09;;;;;;;10.23;7.20;;;13.20;1.00;;;;;;5139780;27;20106;-59